首页
METAR-TAF:

METAR-TAF

机场 :

雅温得-恩西马兰国际机场

雅温得, 喀麦隆

纬度: 03-50N, 经度: 011-31E, 海拔: 751米

当前天气观测

该预报发布于31分钟前的08:30 UTC
风速2节,风向多变
温度 20°C
湿度 94%
气压 1019 hPa
能見度: 6000
多云层高于600英尺
少量云层高于2000英尺, 积雨云.
雷暴, 小雨,

METAR: FKYS 160830Z VRB02KT 6000 -TSRA BKN006 FEW020CB 20/19 Q1019 NOSIG

时间: 10:01 (09:01 UTC)

预报

该预报发布于4小时和1分钟前的05:00 UTC
预报有效从16日的 06点(UTC)到 17日的 06点(UTC)
风速4节,风向西
能見度: 8000
多云层高于600英尺
成为
从 16日的 07点(UTC)到 16日的 09点(UTC)
多云层高于1300英尺
少量云层高于1600英尺, 积雨云.
几率 40%
从 16日的 09点(UTC)到 16日的 13点(UTC)
能見度: 4000
雷暴, 雨
成为
从 16日的 20点(UTC)到 16日的 22点(UTC)
多云层高于600英尺

TAF: FKYS 160500Z 1606/1706 26004KT 8000 BKN006 BECMG 1607/1609 BKN013 FEW016CB PROB40 1609/1613 4000 TSRA BECMG 1620/1622 BKN006

超过4000个机场的气象观测和天气预报(METAR&TAF报告)。

可查询的气象台以黄色和红色小点在地图上表示。

将鼠标移到小点上方,可查看气象台名称。

然后点击查看天气观测和预报。

如需切换地图:点击带黑十字的绿色按钮放大地图;点击带横线的绿色按钮缩小地图;或者点击绿色箭头查看邻近地区的地图。


METAR-TAF: